Time;durP1;ratioP1;P1;durP2;ratioP2;P2;SDS_P1;SDS_P2;PMS_P1;PMS_P2;Temp;Humidity;BMP_temperature;BMP_pressure;BME280_temperature;BME280_humidity;BME280_pressure;Samples;Min_cycle;Max_cycle;Signal;HPM_P1;HPM_P2
2022/05/18 00:01:53;;;;;;;17.95;9.82;;;18.00;99.90;;;;;;5052485;28;20020;-65
2022/05/18 00:04:19;;;;;;;21.75;10.82;;;17.90;99.90;;;;;;5052429;28;20025;-65
2022/05/18 00:06:44;;;;;;;19.17;10.48;;;17.90;99.90;;;;;;5052237;28;20100;-66
2022/05/18 00:09:10;;;;;;;21.85;10.38;;;17.90;99.90;;;;;;5052137;28;20461;-63
2022/05/18 00:11:35;;;;;;;21.25;11.02;;;17.90;99.90;;;;;;5052259;28;20372;-63
2022/05/18 00:14:01;;;;;;;22.15;10.50;;;17.90;99.90;;;;;;5051790;28;20025;-62
2022/05/18 00:16:27;;;;;;;17.80;9.23;;;17.80;99.90;;;;;;5052342;28;20381;-62
2022/05/18 00:18:53;;;;;;;21.85;10.63;;;17.80;99.90;;;;;;5052311;28;20108;-62
2022/05/18 00:21:21;;;;;;;18.80;10.10;;;17.80;99.90;;;;;;5051915;28;20040;-65
2022/05/18 00:23:46;;;;;;;19.77;9.30;;;17.70;99.90;;;;;;5051984;28;20060;-62
2022/05/18 00:26:12;;;;;;;21.50;9.95;;;17.60;99.90;;;;;;5052034;28;20453;-66
2022/05/18 00:28:38;;;;;;;22.60;10.50;;;17.60;99.90;;;;;;5051991;28;20071;-66
2022/05/18 00:31:04;;;;;;;19.33;10.93;;;17.50;99.90;;;;;;5052032;28;20047;-66
2022/05/18 00:33:30;;;;;;;19.52;10.98;;;17.40;99.90;;;;;;5052020;28;20017;-66
2022/05/18 00:35:59;;;;;;;21.58;11.10;;;17.40;99.90;;;;;;5052014;28;20029;-67
2022/05/18 00:38:25;;;;;;;25.90;11.93;;;17.40;99.90;;;;;;5051810;28;20369;-63
2022/05/18 00:40:51;;;;;;;26.13;12.55;;;17.30;99.90;;;;;;5051953;28;20051;-62
2022/05/18 00:43:36;;;;;;;24.45;13.27;;;17.30;99.90;;;;;;5051927;28;20025;-63
2022/05/18 00:46:06;;;;;;;21.73;12.63;;;17.30;99.90;;;;;;5052006;28;20465;-68
2022/05/18 00:48:32;;;;;;;24.25;13.23;;;17.20;99.90;;;;;;5051826;28;20477;-63
2022/05/18 00:51:02;;;;;;;21.90;12.48;;;17.20;99.90;;;;;;5052300;28;20021;-63
2022/05/18 00:53:51;;;;;;;24.95;13.43;;;17.10;99.90;;;;;;5050222;28;20027;-65
2022/05/18 00:56:22;;;;;;;26.92;15.38;;;17.10;99.90;;;;;;5051659;28;20044;-63
2022/05/18 00:59:00;;;;;;;30.45;16.63;;;17.10;99.90;;;;;;5051995;28;20025;-63
2022/05/18 01:01:27;;;;;;;30.40;16.73;;;17.10;99.90;;;;;;5051927;28;20087;-67
2022/05/18 01:03:54;;;;;;;31.00;16.42;;;17.10;99.90;;;;;;5051600;28;20025;-62
2022/05/18 01:06:55;;;;;;;28.85;16.52;;;17.10;99.90;;;;;;5051379;28;20021;-64
2022/05/18 01:09:33;;;;;;;26.10;16.08;;;17.10;99.90;;;;;;5041130;28;20041;-65
2022/05/18 01:11:59;;;;;;;30.10;17.38;;;17.10;99.90;;;;;;5051652;28;20025;-65
2022/05/18 01:14:48;;;;;;;33.38;18.00;;;17.00;99.90;;;;;;5051304;28;20040;-65
2022/05/18 01:17:17;;;;;;;29.20;18.48;;;17.10;99.90;;;;;;5051489;28;20029;-63
2022/05/18 01:19:50;;;;;;;32.95;19.13;;;17.00;99.90;;;;;;5051853;28;20032;-62
2022/05/18 01:22:51;;;;;;;33.53;19.13;;;17.00;99.90;;;;;;5052194;28;20021;-63
2022/05/18 01:25:25;;;;;;;32.50;19.05;;;17.00;99.90;;;;;;5052063;28;20046;-62
2022/05/18 01:27:52;;;;;;;35.67;19.52;;;17.00;99.90;;;;;;5051873;28;20032;-64
2022/05/18 01:30:18;;;;;;;35.60;20.05;;;17.00;99.90;;;;;;5050313;28;20049;-67
2022/05/18 01:32:47;;;;;;;33.25;20.05;;;17.00;99.90;;;;;;5052135;28;20024;-63
2022/05/18 01:35:19;;;;;;;33.47;20.92;;;17.00;99.90;;;;;;5051655;28;20071;-63
2022/05/18 01:37:44;;;;;;;33.05;21.42;;;17.00;99.90;;;;;;5051645;28;20421;-63
2022/05/18 01:40:28;;;;;;;30.13;19.63;;;16.90;99.90;;;;;;5052180;28;20144;-63
2022/05/18 01:43:01;;;;;;;32.88;20.67;;;16.90;99.90;;;;;;5055539;28;20025;-65
2022/05/18 01:45:27;;;;;;;32.65;21.73;;;16.90;99.90;;;;;;5055545;28;20021;-65
2022/05/18 01:47:53;;;;;;;34.20;22.05;;;16.90;99.90;;;;;;5054977;28;20025;-63
2022/05/18 01:50:25;;;;;;;33.00;22.17;;;16.80;99.90;;;;;;5055141;28;20021;-63
2022/05/18 01:52:50;;;;;;;36.90;24.63;;;16.90;99.90;;;;;;5051920;28;20155;-65
2022/05/18 01:55:17;;;;;;;34.72;23.00;;;16.80;99.90;;;;;;5035699;28;20108;-64
2022/05/18 01:57:43;;;;;;;41.72;23.42;;;16.80;99.90;;;;;;5034929;28;20376;-67
2022/05/18 02:00:11;;;;;;;38.65;23.30;;;16.80;99.90;;;;;;5034870;28;20040;-62
2022/05/18 02:02:37;;;;;;;37.17;24.00;;;16.80;99.90;;;;;;5053853;28;20452;-63
2022/05/18 02:05:03;;;;;;;35.08;23.63;;;16.80;99.90;;;;;;5053417;28;20108;-63
2022/05/18 02:07:29;;;;;;;40.45;24.45;;;16.80;99.90;;;;;;5054610;28;20033;-63
2022/05/18 02:09:54;;;;;;;40.80;25.10;;;16.70;99.90;;;;;;5054015;28;20407;-63
2022/05/18 02:12:20;;;;;;;41.35;24.98;;;16.70;99.90;;;;;;5054490;28;20342;-62
2022/05/18 02:14:46;;;;;;;40.38;25.15;;;16.70;99.90;;;;;;5054789;28;20029;-63
2022/05/18 02:17:11;;;;;;;34.92;23.40;;;16.70;99.90;;;;;;5052557;28;20079;-63
2022/05/18 02:19:37;;;;;;;37.63;24.35;;;16.60;99.90;;;;;;5053791;28;20033;-62
2022/05/18 02:22:03;;;;;;;38.80;25.38;;;16.70;99.90;;;;;;5054560;28;20045;-63
2022/05/18 02:24:29;;;;;;;38.13;24.88;;;16.70;99.90;;;;;;5053864;28;20028;-62
2022/05/18 02:26:55;;;;;;;40.50;24.92;;;16.70;99.90;;;;;;5054074;28;20025;-67
2022/05/18 02:29:21;;;;;;;37.72;24.42;;;16.70;99.90;;;;;;5053365;28;20021;-63
2022/05/18 02:31:47;;;;;;;39.78;23.48;;;16.70;99.90;;;;;;5052839;28;20086;-62
2022/05/18 02:34:13;;;;;;;39.28;23.80;;;16.70;99.90;;;;;;5054466;28;20435;-63
2022/05/18 02:36:39;;;;;;;36.83;23.92;;;16.70;99.90;;;;;;5053328;28;20029;-63
2022/05/18 02:39:04;;;;;;;38.35;23.73;;;16.70;99.90;;;;;;5043627;28;20048;-65
2022/05/18 02:41:30;;;;;;;37.88;22.55;;;16.70;99.90;;;;;;5042634;28;20041;-64
2022/05/18 02:43:55;;;;;;;36.22;23.05;;;16.80;99.90;;;;;;5052682;28;20167;-64
2022/05/18 02:46:22;;;;;;;36.55;23.45;;;16.80;99.90;;;;;;5054183;28;20036;-63
2022/05/18 02:48:51;;;;;;;35.22;23.98;;;16.80;99.90;;;;;;5054028;28;20032;-65
2022/05/18 02:51:17;;;;;;;39.03;23.65;;;16.80;99.90;;;;;;5055293;28;20021;-62
2022/05/18 02:53:43;;;;;;;38.53;23.63;;;16.70;99.90;;;;;;5065096;28;20051;-63
2022/05/18 02:56:11;;;;;;;35.53;23.55;;;16.70;99.90;;;;;;5054356;28;20100;-63
2022/05/18 02:58:39;;;;;;;32.30;23.55;;;16.80;99.90;;;;;;5053618;28;20044;-62
2022/05/18 03:01:21;;;;;;;35.97;23.27;;;16.80;99.90;;;;;;5052554;28;20041;-63
2022/05/18 03:03:46;;;;;;;39.23;24.13;;;16.70;99.90;;;;;;5054070;28;20017;-65
2022/05/18 03:06:16;;;;;;;33.00;23.27;;;16.60;99.90;;;;;;5053600;28;20349;-63
2022/05/18 03:08:43;;;;;;;36.17;24.05;;;16.70;99.90;;;;;;5054859;28;20016;-64
2022/05/18 03:11:09;;;;;;;36.92;23.40;;;16.70;99.90;;;;;;5064383;28;20025;-62
2022/05/18 03:13:35;;;;;;;37.58;22.85;;;16.70;99.90;;;;;;5053834;28;20040;-67
2022/05/18 03:16:02;;;;;;;33.10;22.27;;;16.70;99.90;;;;;;5067234;28;21028;-63
2022/05/18 03:18:28;;;;;;;36.50;22.80;;;16.70;99.90;;;;;;5070733;28;20028;-62
2022/05/18 03:23:38;;;;;;;36.05;22.35;;;16.80;99.90;;;;;;5072781;28;20074;-66
2022/05/18 03:26:14;;;;;;;30.13;21.05;;;16.90;99.90;;;;;;5073437;28;20368;-64
2022/05/18 03:28:42;;;;;;;31.08;20.92;;;17.00;99.90;;;;;;5073133;28;20021;-62
2022/05/18 03:31:08;;;;;;;31.63;19.13;;;17.00;99.90;;;;;;5072796;28;20541;-63
2022/05/18 03:33:34;;;;;;;35.50;20.95;;;17.00;99.90;;;;;;5069509;28;20036;-67
2022/05/18 03:36:00;;;;;;;33.72;19.73;;;17.10;99.90;;;;;;5053005;28;20028;-63
2022/05/18 03:38:26;;;;;;;33.42;19.80;;;17.10;99.90;;;;;;5052783;28;20322;-63
2022/05/18 03:40:52;;;;;;;31.42;20.02;;;17.10;99.90;;;;;;5052777;28;20161;-67
2022/05/18 03:43:19;;;;;;;32.63;20.33;;;17.20;99.90;;;;;;5052792;28;20465;-65
2022/05/18 03:45:45;;;;;;;31.00;19.40;;;17.20;99.90;;;;;;5052568;28;20044;-62
2022/05/18 03:48:12;;;;;;;35.65;19.42;;;17.30;99.90;;;;;;5052407;28;20450;-64
2022/05/18 03:50:39;;;;;;;32.83;19.90;;;17.30;99.90;;;;;;5052411;28;20510;-66
2022/05/18 03:53:06;;;;;;;31.00;19.02;;;17.40;99.90;;;;;;5052393;28;20024;-66
2022/05/18 03:55:31;;;;;;;30.13;19.08;;;17.40;99.90;;;;;;5051095;28;20476;-62
2022/05/18 03:57:57;;;;;;;29.65;19.55;;;17.50;99.90;;;;;;5052202;28;20092;-63
2022/05/18 04:00:23;;;;;;;32.58;19.80;;;17.50;99.90;;;;;;5052432;28;20120;-67
2022/05/18 04:02:49;;;;;;;30.77;19.88;;;17.60;99.90;;;;;;5051920;28;20769;-66
2022/05/18 04:05:17;;;;;;;29.48;17.58;;;17.60;99.90;;;;;;5051950;28;20075;-64
2022/05/18 04:07:42;;;;;;;30.05;20.15;;;17.60;99.90;;;;;;5052060;28;20362;-62
2022/05/18 04:10:08;;;;;;;33.65;18.90;;;17.70;99.90;;;;;;5052445;28;20115;-62
2022/05/18 04:12:35;;;;;;;28.88;18.02;;;17.70;99.90;;;;;;5052159;28;20068;-65
2022/05/18 04:15:01;;;;;;;31.45;19.85;;;17.70;99.90;;;;;;5052202;28;20029;-64
2022/05/18 04:17:26;;;;;;;31.17;19.55;;;17.80;99.90;;;;;;5051999;28;20028;-63
2022/05/18 04:19:53;;;;;;;38.10;19.58;;;17.90;99.90;;;;;;5051858;28;20389;-63
2022/05/18 04:22:18;;;;;;;33.22;20.20;;;17.90;99.90;;;;;;5050703;28;20067;-63
2022/05/18 04:24:44;;;;;;;29.65;19.95;;;17.90;99.90;;;;;;5052072;28;20502;-65
2022/05/18 04:27:13;;;;;;;33.47;22.00;;;18.00;99.90;;;;;;5052004;28;20048;-63
2022/05/18 04:29:38;;;;;;;32.70;20.60;;;18.00;99.90;;;;;;5050313;28;20069;-64
2022/05/18 04:32:05;;;;;;;30.88;20.20;;;18.00;99.90;;;;;;5050548;28;20072;-62
2022/05/18 04:34:31;;;;;;;32.70;21.10;;;18.00;99.90;;;;;;5051222;28;20051;-62
2022/05/18 04:36:57;;;;;;;31.58;20.30;;;18.10;99.90;;;;;;5052043;28;20021;-64
2022/05/18 04:39:22;;;;;;;31.90;22.00;;;18.10;99.90;;;;;;5050584;28;20511;-63
2022/05/18 04:41:48;;;;;;;33.80;20.50;;;18.10;99.90;;;;;;5051565;28;20034;-67
2022/05/18 04:44:13;;;;;;;31.75;21.92;;;18.10;99.90;;;;;;5046297;28;20036;-65
2022/05/18 04:46:42;;;;;;;35.00;19.33;;;18.10;99.90;;;;;;5030141;28;20048;-62
2022/05/18 04:49:10;;;;;;;30.80;21.17;;;18.20;99.90;;;;;;5031638;28;20021;-64
2022/05/18 04:51:36;;;;;;;31.63;20.33;;;18.30;99.90;;;;;;5031812;28;20056;-62
2022/05/18 04:54:02;;;;;;;28.33;20.42;;;18.40;99.90;;;;;;5043488;28;20029;-64
2022/05/18 04:56:27;;;;;;;31.38;20.02;;;18.40;99.90;;;;;;5051141;28;20031;-62
2022/05/18 04:58:53;;;;;;;30.38;19.98;;;18.50;99.90;;;;;;5051912;28;20437;-63
2022/05/18 05:01:19;;;;;;;34.70;20.45;;;18.60;99.90;;;;;;5048868;28;20127;-66
2022/05/18 05:03:45;;;;;;;37.00;19.02;;;18.70;99.90;;;;;;5051115;28;20204;-65
2022/05/18 05:06:11;;;;;;;30.15;19.20;;;18.70;99.90;;;;;;5051501;28;20060;-63
2022/05/18 05:08:37;;;;;;;29.45;19.48;;;18.70;99.90;;;;;;5051073;28;20040;-65
2022/05/18 05:11:05;;;;;;;29.80;18.65;;;18.90;99.90;;;;;;5051375;28;20079;-66
2022/05/18 05:13:32;;;;;;;27.13;17.50;;;18.90;99.90;;;;;;5051425;28;20453;-66
2022/05/18 05:16:07;;;;;;;28.52;16.92;;;19.00;99.90;;;;;;5054362;28;20029;-66
2022/05/18 05:18:33;;;;;;;29.70;17.70;;;19.10;99.90;;;;;;5054837;28;20099;-64
2022/05/18 05:20:59;;;;;;;31.40;18.75;;;19.20;99.90;;;;;;5055630;28;20103;-63
2022/05/18 05:23:26;;;;;;;27.13;17.20;;;19.30;99.90;;;;;;5053710;28;20033;-62
2022/05/18 05:25:52;;;;;;;29.33;16.83;;;19.40;99.90;;;;;;5054492;28;20021;-65
2022/05/18 05:28:18;;;;;;;28.13;18.05;;;19.50;99.90;;;;;;5053607;28;20419;-66
2022/05/18 05:30:44;;;;;;;24.40;15.20;;;19.60;99.90;;;;;;5054275;28;20057;-63
2022/05/18 05:33:11;;;;;;;24.63;16.13;;;19.70;99.90;;;;;;5055129;28;20143;-63
2022/05/18 05:35:40;;;;;;;26.17;16.10;;;19.90;99.90;;;;;;5055246;28;20028;-63
2022/05/18 05:38:05;;;;;;;28.38;15.38;;;20.10;99.90;;;;;;5054649;28;20036;-63
2022/05/18 05:40:31;;;;;;;26.42;15.27;;;20.20;99.90;;;;;;5053774;28;20373;-67
2022/05/18 05:42:56;;;;;;;22.20;14.00;;;20.30;99.90;;;;;;5054875;28;20029;-62
2022/05/18 05:45:22;;;;;;;25.58;14.57;;;20.40;99.90;;;;;;5054629;28;20040;-62
2022/05/18 05:47:47;;;;;;;24.20;14.07;;;20.50;99.90;;;;;;5054365;28;20036;-62
2022/05/18 05:50:13;;;;;;;23.55;12.85;;;20.60;99.90;;;;;;5054544;28;20416;-64
2022/05/18 05:52:39;;;;;;;21.98;13.45;;;20.80;99.90;;;;;;5054796;28;20139;-63
2022/05/18 05:55:05;;;;;;;26.73;11.13;;;20.80;99.90;;;;;;5052617;28;20215;-62
2022/05/18 05:57:31;;;;;;;20.63;10.88;;;20.80;99.90;;;;;;5054148;28;20029;-63
2022/05/18 05:59:56;;;;;;;22.75;10.10;;;20.80;99.90;;;;;;5054484;28;20047;-62
2022/05/18 06:02:22;;;;;;;19.85;10.15;;;20.90;99.90;;;;;;5053914;28;20108;-62
2022/05/18 06:04:48;;;;;;;20.73;9.55;;;21.00;99.90;;;;;;5054108;28;20025;-63
2022/05/18 06:07:13;;;;;;;20.25;9.50;;;20.90;99.90;;;;;;5053878;28;20017;-63
2022/05/18 06:09:41;;;;;;;21.33;10.93;;;20.80;99.90;;;;;;5053144;28;20115;-63
2022/05/18 06:12:07;;;;;;;17.90;9.45;;;20.80;99.90;;;;;;5054526;28;20017;-65
2022/05/18 06:14:33;;;;;;;18.55;9.93;;;20.90;99.90;;;;;;5052804;28;20039;-63
2022/05/18 06:16:58;;;;;;;22.50;11.75;;;21.20;99.90;;;;;;5053734;28;20021;-64
2022/05/18 06:19:24;;;;;;;20.85;10.77;;;21.40;99.90;;;;;;5053508;28;20113;-63
2022/05/18 06:21:50;;;;;;;19.98;10.48;;;22.10;99.90;;;;;;5053901;28;20104;-63
2022/05/18 06:24:18;;;;;;;21.05;11.13;;;22.90;99.90;;;;;;5054273;28;20071;-64
2022/05/18 06:26:44;;;;;;;23.08;9.93;;;23.80;99.90;;;;;;5045362;28;20025;-61
2022/05/18 06:29:09;;;;;;;21.60;12.02;;;24.70;99.90;;;;;;5054146;28;20438;-63
2022/05/18 06:31:36;;;;;;;19.02;10.18;;;25.00;99.90;;;;;;5072046;28;20041;-62
2022/05/18 06:34:01;;;;;;;19.15;10.02;;;25.30;99.90;;;;;;5052634;28;20029;-64
2022/05/18 06:36:28;;;;;;;18.98;10.23;;;25.40;99.90;;;;;;5053256;28;20037;-61
2022/05/18 06:38:53;;;;;;;18.48;10.13;;;25.60;99.90;;;;;;5053562;28;20012;-63
2022/05/18 06:41:21;;;;;;;21.50;10.43;;;25.40;99.90;;;;;;5053071;28;20036;-64
2022/05/18 06:43:51;;;;;;;18.48;9.55;;;25.30;99.90;;;;;;5053974;28;20066;-64
2022/05/18 06:46:17;;;;;;;19.63;10.20;;;25.10;99.90;;;;;;5041497;28;20047;-63
2022/05/18 06:48:44;;;;;;;19.35;10.48;;;24.90;99.90;;;;;;5053802;28;20104;-62
2022/05/18 06:51:10;;;;;;;21.40;11.23;;;24.40;99.90;;;;;;5053941;28;20021;-61
2022/05/18 06:53:36;;;;;;;23.05;12.70;;;24.10;99.90;;;;;;5053869;28;20036;-62
2022/05/18 06:56:02;;;;;;;24.27;13.10;;;23.80;99.90;;;;;;5050801;28;20107;-64
2022/05/18 06:58:28;;;;;;;24.08;12.80;;;23.60;99.90;;;;;;5053156;28;20090;-63
2022/05/18 07:00:53;;;;;;;23.45;13.40;;;23.40;99.90;;;;;;5053637;28;20045;-62
2022/05/18 07:03:19;;;;;;;23.33;13.60;;;23.70;99.90;;;;;;5053101;28;20017;-65
2022/05/18 07:05:45;;;;;;;27.92;12.98;;;24.30;99.90;;;;;;5052208;28;20025;-62
2022/05/18 07:08:10;;;;;;;24.35;13.27;;;25.00;99.90;;;;;;5052214;28;20025;-62
2022/05/18 07:10:36;;;;;;;27.90;13.98;;;25.40;99.30;;;;;;5052452;28;20029;-66
2022/05/18 07:13:04;;;;;;;22.73;13.43;;;25.60;99.00;;;;;;5053265;28;20064;-63
2022/05/18 07:15:30;;;;;;;25.40;13.50;;;25.80;98.40;;;;;;5053580;28;20075;-67
2022/05/18 07:17:55;;;;;;;24.70;13.73;;;25.90;98.10;;;;;;5053038;28;20025;-62
2022/05/18 07:20:21;;;;;;;24.90;13.45;;;26.00;97.60;;;;;;5051680;28;20125;-62
2022/05/18 07:22:46;;;;;;;22.75;12.52;;;26.00;97.60;;;;;;5052843;28;20037;-63
2022/05/18 07:25:12;;;;;;;23.80;12.38;;;26.00;97.60;;;;;;5044110;28;20029;-64
2022/05/18 07:27:39;;;;;;;24.67;12.80;;;26.10;97.30;;;;;;5052421;28;20060;-63
2022/05/18 07:30:06;;;;;;;27.05;13.13;;;26.20;97.20;;;;;;5051733;28;20051;-64
2022/05/18 07:32:31;;;;;;;24.15;13.20;;;26.40;97.00;;;;;;5052555;28;20082;-66
2022/05/18 07:34:57;;;;;;;25.00;13.15;;;26.40;96.70;;;;;;5052122;28;20419;-64
2022/05/18 07:37:23;;;;;;;25.13;12.88;;;26.20;96.70;;;;;;5052043;28;20044;-64
2022/05/18 07:39:49;;;;;;;23.27;13.48;;;26.10;97.00;;;;;;5051460;28;20032;-62
2022/05/18 07:42:15;;;;;;;24.05;13.02;;;26.10;97.00;;;;;;5052800;28;20381;-62
2022/05/18 07:44:40;;;;;;;23.92;13.13;;;26.00;96.90;;;;;;5052907;28;20025;-62
2022/05/18 07:47:07;;;;;;;25.95;13.20;;;26.00;97.00;;;;;;5053229;28;20539;-67
2022/05/18 07:49:37;;;;;;;25.20;12.35;;;25.90;97.00;;;;;;5053361;28;20032;-62
2022/05/18 07:52:04;;;;;;;28.65;15.40;;;25.90;97.00;;;;;;5052284;28;20100;-62
2022/05/18 07:54:30;;;;;;;28.90;16.15;;;25.90;97.00;;;;;;5052886;28;20036;-61
2022/05/18 07:56:55;;;;;;;28.35;15.90;;;25.80;97.00;;;;;;5051508;28;20017;-63
2022/05/18 07:59:21;;;;;;;26.42;15.05;;;25.90;96.90;;;;;;5051761;28;20557;-61
2022/05/18 08:01:46;;;;;;;26.35;14.98;;;26.10;96.70;;;;;;5050290;28;20467;-61
2022/05/18 08:04:12;;;;;;;28.83;14.57;;;26.20;96.30;;;;;;5052741;28;20072;-64
2022/05/18 08:06:38;;;;;;;26.88;17.15;;;26.20;96.20;;;;;;5051473;28;20075;-63
2022/05/18 08:09:04;;;;;;;25.85;15.68;;;26.30;96.10;;;;;;5052489;28;20021;-66
2022/05/18 08:16:58;;;;;;;28.50;15.20;;;27.00;95.20;;;;;;5052200;28;20032;-65
2022/05/18 08:19:23;;;;;;;29.80;15.63;;;27.30;94.70;;;;;;5051912;28;20029;-62
2022/05/18 08:21:49;;;;;;;27.73;14.95;;;27.40;94.40;;;;;;5051434;28;20029;-62
2022/05/18 08:24:15;;;;;;;26.42;13.40;;;27.40;94.40;;;;;;5052324;28;20074;-66
2022/05/18 08:26:41;;;;;;;25.70;13.70;;;27.50;94.20;;;;;;5052419;28;20021;-61
2022/05/18 08:29:07;;;;;;;28.85;13.40;;;27.60;94.10;;;;;;5052716;28;20459;-63
2022/05/18 08:31:33;;;;;;;21.08;11.98;;;27.80;93.90;;;;;;5051624;28;20049;-68
2022/05/18 08:33:58;;;;;;;21.20;11.82;;;28.20;93.80;;;;;;5051999;28;20025;-62
2022/05/18 08:36:25;;;;;;;23.88;13.57;;;28.70;93.00;;;;;;5052307;28;20041;-62
2022/05/18 08:38:51;;;;;;;24.08;12.63;;;29.10;92.20;;;;;;5052407;28;20021;-62
2022/05/18 08:41:25;;;;;;;24.20;12.23;;;29.40;91.80;;;;;;5051880;28;20047;-65
2022/05/18 08:43:54;;;;;;;20.15;11.00;;;29.70;91.20;;;;;;5052294;28;20127;-62
2022/05/18 08:46:43;;;;;;;22.15;11.93;;;29.80;90.90;;;;;;5043742;28;20107;-62
2022/05/18 08:49:09;;;;;;;22.17;11.07;;;29.20;91.00;;;;;;5054402;28;20511;-62
2022/05/18 08:51:51;;;;;;;20.58;9.73;;;28.70;91.50;;;;;;5055640;28;20052;-62
2022/05/18 08:54:30;;;;;;;19.88;10.27;;;28.60;91.30;;;;;;5056083;28;20056;-63
2022/05/18 08:57:00;;;;;;;18.40;9.68;;;28.70;91.40;;;;;;5056059;28;20055;-62
2022/05/18 08:59:31;;;;;;;18.90;8.98;;;28.70;91.10;;;;;;5054616;28;20021;-63
2022/05/18 09:01:59;;;;;;;19.58;8.30;;;29.00;91.10;;;;;;5054829;28;20052;-62
2022/05/18 09:04:39;;;;;;;15.57;6.85;;;29.80;90.10;;;;;;5055903;28;20071;-63
2022/05/18 09:07:18;;;;;;;14.85;6.95;;;30.80;88.50;;;;;;5056029;28;20021;-61
2022/05/18 09:12:36;;;;;;;10.23;5.53;;;32.40;84.70;;;;;;5055856;28;20503;-63
2022/05/18 09:15:09;;;;;;;15.35;5.68;;;32.70;81.50;;;;;;5055571;28;20033;-63
2022/05/18 09:17:54;;;;;;;11.43;5.30;;;33.00;81.30;;;;;;5055778;28;20472;-62
2022/05/18 09:20:19;;;;;;;11.20;5.53;;;33.50;79.30;;;;;;5055738;28;20163;-63
2022/05/18 09:23:03;;;;;;;9.88;4.85;;;34.10;77.50;;;;;;5061629;28;20099;-64
2022/05/18 09:26:17;;;;;;;11.48;5.25;;;34.50;75.80;;;;;;5075876;28;20028;-61
2022/05/18 09:29:04;;;;;;;13.75;6.18;;;35.00;73.40;;;;;;5016325;28;20038;-62
2022/05/18 09:31:44;;;;;;;13.80;6.35;;;35.20;73.40;;;;;;5040576;28;20045;-62
2022/05/18 09:34:18;;;;;;;14.60;5.75;;;35.50;71.70;;;;;;5055815;28;20086;-62
2022/05/18 09:37:03;;;;;;;12.65;6.20;;;35.80;70.80;;;;;;5071074;28;20029;-63
2022/05/18 09:39:35;;;;;;;11.23;5.93;;;35.90;69.80;;;;;;5075705;28;20040;-64
2022/05/18 09:42:17;;;;;;;14.35;6.53;;;36.00;69.60;;;;;;5075044;28;20031;-65
2022/05/18 09:44:57;;;;;;;12.70;6.07;;;36.20;68.60;;;;;;5075508;28;20029;-63
2022/05/18 09:47:26;;;;;;;10.63;6.05;;;36.30;68.30;;;;;;5075399;28;20039;-63
2022/05/18 09:49:55;;;;;;;12.93;5.80;;;36.40;67.70;;;;;;5075315;28;20024;-67
2022/05/18 09:52:26;;;;;;;10.98;5.15;;;36.60;66.50;;;;;;5071499;28;20023;-68
2022/05/18 09:55:00;;;;;;;13.25;5.75;;;36.70;65.80;;;;;;5053158;28;20017;-63
2022/05/18 09:57:49;;;;;;;11.13;5.32;;;36.80;65.00;;;;;;5054510;28;20063;-65
2022/05/18 10:00:22;;;;;;;9.30;4.60;;;36.60;64.50;;;;;;5054042;28;20096;-61
2022/05/18 10:08:36;;;;;;;12.40;5.72;;;36.40;63.90;;;;;;5053897;28;20496;-63
2022/05/18 10:11:06;;;;;;;11.40;4.65;;;36.20;64.00;;;;;;5054139;28;20529;-63
2022/05/18 10:13:40;;;;;;;8.02;4.28;;;36.00;64.10;;;;;;5054027;28;20025;-65
2022/05/18 10:16:18;;;;;;;11.60;4.78;;;35.60;64.00;;;;;;5054218;28;20048;-64
2022/05/18 10:18:51;;;;;;;10.90;5.18;;;35.10;64.70;;;;;;5052768;28;20028;-63
2022/05/18 10:21:18;;;;;;;12.48;4.95;;;34.90;65.00;;;;;;5053777;28;20062;-64
2022/05/18 10:23:52;;;;;;;9.15;5.03;;;34.80;65.50;;;;;;5054176;28;20020;-64
2022/05/18 10:26:34;;;;;;;10.68;5.45;;;34.60;65.50;;;;;;5056672;28;20046;-66
2022/05/18 10:29:37;;;;;;;14.38;6.25;;;34.20;66.10;;;;;;5074267;28;20024;-63
2022/05/18 10:32:10;;;;;;;11.73;5.22;;;33.60;66.50;;;;;;5053692;28;20043;-62
2022/05/18 10:34:41;;;;;;;12.57;6.18;;;33.20;67.30;;;;;;5054268;28;20437;-62
2022/05/18 10:37:10;;;;;;;11.98;5.50;;;33.00;67.40;;;;;;5054346;28;20031;-65
2022/05/18 10:39:47;;;;;;;10.30;5.18;;;32.90;67.80;;;;;;5054064;28;20055;-64
2022/05/18 10:42:50;;;;;;;10.07;5.15;;;32.90;67.90;;;;;;5054450;28;20033;-64
2022/05/18 10:45:32;;;;;;;13.90;5.38;;;32.90;68.30;;;;;;5022429;28;20116;-63
2022/05/18 10:48:31;;;;;;;13.70;5.13;;;33.20;67.30;;;;;;5032741;28;20037;-65
2022/05/18 10:51:06;;;;;;;12.48;5.20;;;33.20;67.30;;;;;;5011707;28;20065;-62
2022/05/18 10:53:45;;;;;;;11.52;5.07;;;33.20;67.20;;;;;;5034748;28;20104;-62
2022/05/18 10:56:25;;;;;;;11.00;5.32;;;33.20;67.20;;;;;;5033688;28;20033;-64
2022/05/18 10:59:12;;;;;;;13.00;5.72;;;33.10;67.30;;;;;;5033259;28;20029;-64
2022/05/18 11:02:12;;;;;;;15.18;5.70;;;33.00;67.30;;;;;;5034425;28;20108;-66
2022/05/18 11:04:38;;;;;;;9.73;5.05;;;32.80;67.50;;;;;;5033813;28;20381;-63
2022/05/18 11:07:05;;;;;;;11.07;5.13;;;32.60;67.40;;;;;;5034258;28;20025;-66
2022/05/18 11:09:33;;;;;;;10.02;4.95;;;32.40;67.80;;;;;;5033097;28;20063;-64
2022/05/18 11:12:10;;;;;;;15.63;5.32;;;32.00;67.90;;;;;;5032719;28;20104;-66
2022/05/18 11:14:58;;;;;;;12.68;5.00;;;31.80;67.80;;;;;;5033500;28;20025;-64
2022/05/18 11:17:30;;;;;;;9.90;4.53;;;31.50;68.00;;;;;;5033778;28;20378;-62
2022/05/18 11:20:11;;;;;;;;;;;31.60;68.00;;;;;;5034129;28;20457;-64
2022/05/18 11:22:55;;;;;;;11.18;4.53;;;31.90;68.00;;;;;;5032766;28;20428;-67
2022/05/18 11:25:27;;;;;;;8.13;3.42;;;32.20;67.00;;;;;;5049689;28;20041;-66
2022/05/18 11:28:00;;;;;;;10.80;4.18;;;32.70;66.70;;;;;;5050952;28;20103;-63
2022/05/18 11:30:52;;;;;;;6.70;3.70;;;33.30;66.70;;;;;;5050590;28;20041;-63
2022/05/18 11:33:46;;;;;;;10.15;3.63;;;33.80;65.30;;;;;;5052103;28;20350;-64
2022/05/18 11:36:18;;;;;;;7.47;3.67;;;34.10;64.60;;;;;;5052931;28;20029;-66
2022/05/18 11:39:06;;;;;;;7.65;3.50;;;34.30;64.40;;;;;;5046632;28;20033;-62
2022/05/18 11:41:44;;;;;;;10.35;3.85;;;34.50;64.20;;;;;;5038190;28;20040;-63
2022/05/18 11:44:25;;;;;;;7.50;4.10;;;34.70;63.80;;;;;;5052743;28;20028;-64
2022/05/18 11:47:06;;;;;;;8.93;4.13;;;35.00;63.40;;;;;;5052586;28;20025;-63
2022/05/18 11:49:53;;;;;;;9.50;4.80;;;35.40;63.00;;;;;;5052264;28;20056;-66
2022/05/18 11:52:43;;;;;;;10.60;4.10;;;35.80;62.50;;;;;;5052214;28;20021;-67
2022/05/18 11:55:36;;;;;;;10.10;3.83;;;36.00;62.30;;;;;;5051433;28;20020;-63
2022/05/18 11:58:26;;;;;;;11.57;4.93;;;36.30;62.00;;;;;;5052777;28;20059;-65
2022/05/18 12:01:08;;;;;;;14.52;6.05;;;36.30;61.30;;;;;;5053948;28;20039;-62
2022/05/18 12:03:48;;;;;;;9.40;4.25;;;36.20;61.40;;;;;;5052336;28;20056;-63
2022/05/18 12:06:29;;;;;;;9.45;3.92;;;36.20;61.30;;;;;;5052926;28;20040;-65
2022/05/18 12:09:13;;;;;;;12.15;4.20;;;36.30;61.00;;;;;;5052533;28;20519;-66
2022/05/18 12:11:39;;;;;;;9.88;4.47;;;36.10;60.90;;;;;;5051215;28;20108;-63
2022/05/18 12:14:32;;;;;;;12.30;4.80;;;36.00;60.90;;;;;;5052546;28;20039;-67
2022/05/18 12:17:27;;;;;;;11.02;4.38;;;36.00;60.80;;;;;;5052183;28;20057;-63
2022/05/18 12:20:09;;;;;;;8.63;3.97;;;36.00;60.60;;;;;;5064519;28;20415;-63
2022/05/18 12:22:39;;;;;;;14.13;4.35;;;36.00;60.50;;;;;;5052388;28;20048;-62
2022/05/18 12:25:07;;;;;;;10.20;4.47;;;35.80;60.40;;;;;;5052297;28;20148;-66
2022/05/18 12:27:33;;;;;;;10.65;3.83;;;35.60;60.60;;;;;;5051860;28;20104;-65
2022/05/18 12:30:01;;;;;;;9.90;4.20;;;35.60;60.50;;;;;;5055236;28;20120;-65
2022/05/18 12:32:28;;;;;;;13.55;4.93;;;35.60;60.60;;;;;;5060744;28;20017;-62
2022/05/18 12:35:02;;;;;;;11.27;5.50;;;35.50;60.20;;;;;;5052577;28;20025;-63
2022/05/18 12:37:32;;;;;;;10.95;4.68;;;35.30;60.30;;;;;;5068986;28;20394;-62
2022/05/18 12:40:38;;;;;;;14.23;5.20;;;34.90;60.50;;;;;;5071786;28;20020;-66
2022/05/18 12:43:32;;;;;;;12.95;4.90;;;34.60;60.50;;;;;;5060889;28;20456;-61
2022/05/18 12:46:37;;;;;;;14.65;5.07;;;34.30;60.90;;;;;;5069435;28;20028;-63
2022/05/18 12:49:10;;;;;;;12.48;4.47;;;33.90;61.50;;;;;;5055922;28;20095;-63
2022/05/18 12:51:52;;;;;;;13.50;5.03;;;33.30;62.00;;;;;;5051041;28;20028;-62
2022/05/18 12:54:26;;;;;;;13.82;4.32;;;32.90;62.50;;;;;;5052556;28;20203;-64
2022/05/18 12:57:10;;;;;;;12.25;4.35;;;32.60;62.80;;;;;;5052509;28;20106;-66
2022/05/18 12:59:57;;;;;;;10.73;4.13;;;32.00;62.80;;;;;;5053309;28;20049;-63
2022/05/18 13:03:02;;;;;;;12.70;4.40;;;31.40;63.30;;;;;;5072346;28;20036;-62
2022/05/18 13:05:28;;;;;;;13.65;4.20;;;31.00;64.40;;;;;;5068575;28;20075;-62
2022/05/18 13:07:59;;;;;;;13.18;3.85;;;30.70;64.90;;;;;;5066826;28;20025;-62